Time;durP1;ratioP1;P1;durP2;ratioP2;P2;SDS_P1;SDS_P2;PMS_P1;PMS_P2;Temp;Humidity;BMP_temperature;BMP_pressure;BME280_temperature;BME280_humidity;BME280_pressure;Samples;Min_cycle;Max_cycle;Signal;HPM_P1;HPM_P2
2023/01/18 00:00:59;;;;;;;;;;;22.00;33.30;;;;;;475599;250;1996;-45
2023/01/18 00:03:00;;;;;;;;;;;22.00;33.40;;;;;;475642;250;1685;-45
2023/01/18 00:05:02;;;;;;;;;;;21.90;33.40;;;;;;476071;250;2043;-45
2023/01/18 00:07:03;;;;;;;;;;;22.00;33.50;;;;;;475640;250;2414;-45
2023/01/18 00:09:04;;;;;;;;;;;22.00;33.50;;;;;;475610;250;1967;-45
2023/01/18 00:11:06;;;;;;;;;;;21.90;33.50;;;;;;475558;250;1728;-45
2023/01/18 00:13:07;;;;;;;;;;;21.90;33.50;;;;;;475415;251;1420;-44
2023/01/18 00:15:08;;;;;;;;;;;21.80;33.60;;;;;;475782;250;1770;-44
2023/01/18 00:17:10;;;;;;;;;;;21.70;33.70;;;;;;475609;250;2284;-45
2023/01/18 00:19:12;;;;;;;;;;;21.70;33.70;;;;;;475583;250;1909;-45
2023/01/18 00:21:13;;;;;;;;;;;21.70;33.70;;;;;;475699;250;2219;-45
2023/01/18 00:23:15;;;;;;;;;;;21.70;33.70;;;;;;475493;250;1904;-45
2023/01/18 00:25:16;;;;;;;;;;;21.70;33.70;;;;;;475693;250;1737;-45
2023/01/18 00:27:17;;;;;;;;;;;21.70;33.80;;;;;;475758;250;1678;-45
2023/01/18 00:29:19;;;;;;;;;;;21.70;33.80;;;;;;475627;247;1991;-45
2023/01/18 00:31:20;;;;;;;;;;;21.60;33.90;;;;;;475856;250;1859;-44
2023/01/18 00:33:21;;;;;;;;;;;21.60;33.90;;;;;;475796;250;2002;-45
2023/01/18 00:35:23;;;;;;;;;;;21.60;33.90;;;;;;475623;251;1874;-45
2023/01/18 00:37:24;;;;;;;;;;;21.50;33.90;;;;;;475732;250;2196;-45
2023/01/18 00:39:25;;;;;;;;;;;21.50;34.00;;;;;;475832;250;2090;-45
2023/01/18 00:41:27;;;;;;;;;;;21.50;34.00;;;;;;475582;251;2404;-45
2023/01/18 00:43:40;;;;;;;;;;;21.50;34.00;;;;;;475515;251;1856;-44
2023/01/18 00:45:42;;;;;;;;;;;21.40;34.00;;;;;;475656;250;2477;-44
2023/01/18 00:47:43;;;;;;;;;;;21.40;34.10;;;;;;475599;250;1709;-45
2023/01/18 00:49:45;;;;;;;;;;;21.50;34.20;;;;;;475586;250;1668;-45
2023/01/18 00:51:45;;;;;;;;;;;21.40;34.20;;;;;;475622;250;1987;-45
2023/01/18 00:53:47;;;;;;;;;;;21.40;34.20;;;;;;475517;251;1759;-45
2023/01/18 00:55:48;;;;;;;;;;;21.40;34.20;;;;;;475503;251;1829;-45
2023/01/18 00:57:50;;;;;;;;;;;21.30;34.20;;;;;;475623;250;2184;-45
2023/01/18 00:59:51;;;;;;;;;;;21.30;34.20;;;;;;475565;250;1646;-44
2023/01/18 01:01:52;;;;;;;;;;;21.30;34.30;;;;;;475784;250;1755;-44
2023/01/18 01:08:32;;;;;;;;;;;21.20;34.40;;;;;;475554;251;1670;-45
2023/01/18 01:10:34;;;;;;;;;;;21.20;34.30;;;;;;475702;251;1954;-45
2023/01/18 01:26:31;;;;;;;;;;;21.10;34.50;;;;;;475667;251;1686;-45
2023/01/18 01:28:33;;;;;;;;;;;21.10;34.50;;;;;;475801;250;1344;-45
2023/01/18 01:30:34;;;;;;;;;;;21.10;34.50;;;;;;475732;250;1654;-44
2023/01/18 01:32:35;;;;;;;;;;;21.10;34.50;;;;;;475631;251;2201;-45
2023/01/18 01:34:37;;;;;;;;;;;21.10;34.50;;;;;;475804;250;2768;-44
2023/01/18 01:36:38;;;;;;;;;;;21.10;34.50;;;;;;475603;250;2443;-45
2023/01/18 01:38:40;;;;;;;;;;;21.00;34.50;;;;;;475913;250;2343;-45
2023/01/18 01:40:41;;;;;;;;;;;21.10;34.60;;;;;;475587;251;2077;-44
2023/01/18 01:42:43;;;;;;;;;;;21.10;34.60;;;;;;475573;250;1730;-44
2023/01/18 01:44:44;;;;;;;;;;;21.00;34.50;;;;;;475582;250;2459;-45
2023/01/18 01:46:46;;;;;;;;;;;21.10;34.60;;;;;;475642;251;1700;-45
2023/01/18 01:48:47;;;;;;;;;;;21.00;34.50;;;;;;475705;250;2134;-45
2023/01/18 01:50:48;;;;;;;;;;;21.00;34.60;;;;;;475680;250;1690;-45
2023/01/18 01:52:50;;;;;;;;;;;21.00;34.70;;;;;;475780;250;1752;-45
2023/01/18 01:54:51;;;;;;;;;;;21.00;34.60;;;;;;475733;250;2112;-45
2023/01/18 01:56:52;;;;;;;;;;;21.00;34.70;;;;;;475912;250;2161;-45
2023/01/18 01:58:53;;;;;;;;;;;21.00;34.60;;;;;;475766;250;2558;-45
2023/01/18 02:00:55;;;;;;;;;;;21.00;34.60;;;;;;475638;250;1840;-44
2023/01/18 02:02:56;;;;;;;;;;;20.90;34.60;;;;;;475678;250;1754;-45
2023/01/18 02:04:57;;;;;;;;;;;21.00;34.70;;;;;;475734;250;1808;-45
2023/01/18 02:06:59;;;;;;;;;;;20.90;34.70;;;;;;475928;250;1718;-45
2023/01/18 02:09:00;;;;;;;;;;;20.90;34.80;;;;;;475711;250;2127;-45
2023/01/18 02:11:01;;;;;;;;;;;20.90;34.80;;;;;;475731;250;1936;-45
2023/01/18 02:13:03;;;;;;;;;;;20.90;34.70;;;;;;475511;251;1944;-44
2023/01/18 02:15:04;;;;;;;;;;;21.10;34.40;;;;;;475716;250;2145;-45
2023/01/18 02:17:05;;;;;;;;;;;21.30;34.00;;;;;;475784;250;2196;-45
2023/01/18 02:19:07;;;;;;;;;;;21.60;33.80;;;;;;475701;251;2566;-45
2023/01/18 02:21:08;;;;;;;;;;;21.70;33.40;;;;;;475721;251;1745;-45
2023/01/18 02:23:09;;;;;;;;;;;21.80;33.20;;;;;;475800;250;1735;-45
2023/01/18 02:25:11;;;;;;;;;;;22.00;33.10;;;;;;475685;251;1658;-45
2023/01/18 02:27:12;;;;;;;;;;;22.00;32.90;;;;;;475719;250;1650;-45
2023/01/18 02:29:13;;;;;;;;;;;22.10;32.70;;;;;;476061;250;1929;-45
2023/01/18 02:31:15;;;;;;;;;;;22.20;32.70;;;;;;475869;250;2299;-45
2023/01/18 02:33:16;;;;;;;;;;;22.30;32.60;;;;;;475751;251;1849;-45
2023/01/18 02:35:17;;;;;;;;;;;22.30;32.50;;;;;;475678;250;1687;-45
2023/01/18 02:37:19;;;;;;;;;;;22.30;32.40;;;;;;475837;250;2196;-45
2023/01/18 02:39:22;;;;;;;;;;;22.40;32.40;;;;;;475863;250;2008;-45
2023/01/18 02:41:22;;;;;;;;;;;22.40;32.30;;;;;;475490;250;1874;-45
2023/01/18 02:48:21;;;;;;;;;;;22.60;32.10;;;;;;450992;264;1781;-45
2023/01/18 02:50:23;;;;;;;;;;;22.60;32.00;;;;;;450884;263;1809;-45
2023/01/18 02:52:24;;;;;;;;;;;22.70;32.00;;;;;;450791;264;1745;-45
2023/01/18 02:54:25;;;;;;;;;;;22.70;32.00;;;;;;450772;264;1799;-45
2023/01/18 02:56:27;;;;;;;;;;;22.70;31.90;;;;;;450792;264;1685;-45
2023/01/18 02:58:28;;;;;;;;;;;22.70;31.90;;;;;;450887;264;2217;-45
2023/01/18 03:00:29;;;;;;;;;;;22.80;31.90;;;;;;450934;264;2078;-45
2023/01/18 03:02:31;;;;;;;;;;;22.80;31.80;;;;;;450945;264;1693;-45
2023/01/18 03:04:32;;;;;;;;;;;22.80;31.80;;;;;;451198;264;1781;-45
2023/01/18 03:06:33;;;;;;;;;;;22.80;31.70;;;;;;450979;264;2109;-45
2023/01/18 03:08:35;;;;;;;;;;;22.90;31.70;;;;;;451036;264;1787;-45
2023/01/18 03:10:36;;;;;;;;;;;22.90;31.70;;;;;;450999;264;1613;-45
2023/01/18 03:12:45;;;;;;;;;;;22.90;31.70;;;;;;450880;264;1925;-45
2023/01/18 03:14:46;;;;;;;;;;;22.90;31.60;;;;;;450862;264;2123;-45
2023/01/18 03:16:56;;;;;;;;;;;22.90;31.60;;;;;;450898;264;2218;-45
2023/01/18 03:19:00;;;;;;;;;;;23.00;31.60;;;;;;451558;251;2085;-45
2023/01/18 03:21:01;;;;;;;;;;;23.00;31.70;;;;;;475756;250;2275;-45
2023/01/18 03:25:21;;;;;;;;;;;23.00;31.60;;;;;;475651;250;1562;-45
2023/01/18 03:34:21;;;;;;;;;;;23.10;31.50;;;;;;475850;250;1742;-45
2023/01/18 03:36:22;;;;;;;;;;;23.10;31.50;;;;;;475396;250;3174;-45
2023/01/18 03:38:23;;;;;;;;;;;23.10;31.40;;;;;;475675;250;2192;-45
2023/01/18 03:40:25;;;;;;;;;;;23.10;31.40;;;;;;475429;250;1833;-45
2023/01/18 03:42:26;;;;;;;;;;;23.20;31.50;;;;;;475334;250;1706;-45
2023/01/18 03:44:28;;;;;;;;;;;23.10;31.40;;;;;;475343;250;2932;-45
2023/01/18 03:46:29;;;;;;;;;;;23.20;31.50;;;;;;475244;251;1605;-45
2023/01/18 03:48:30;;;;;;;;;;;23.20;31.40;;;;;;475497;250;1968;-45
2023/01/18 03:50:31;;;;;;;;;;;23.20;31.40;;;;;;475820;250;1676;-45
2023/01/18 03:52:36;;;;;;;;;;;23.20;31.40;;;;;;475335;251;1727;-45
2023/01/18 03:54:34;;;;;;;;;;;23.20;31.30;;;;;;475378;250;1796;-44
2023/01/18 03:56:35;;;;;;;;;;;23.20;31.30;;;;;;475858;250;2037;-45
2023/01/18 03:58:37;;;;;;;;;;;23.30;31.30;;;;;;475561;251;2229;-45
2023/01/18 04:00:38;;;;;;;;;;;23.30;31.40;;;;;;475763;250;1622;-45
2023/01/18 04:02:39;;;;;;;;;;;23.30;31.30;;;;;;475746;251;2195;-45
2023/01/18 04:04:40;;;;;;;;;;;23.30;31.30;;;;;;475770;250;1698;-45
2023/01/18 04:06:42;;;;;;;;;;;23.30;31.30;;;;;;475935;250;2470;-45
2023/01/18 04:08:43;;;;;;;;;;;23.30;31.30;;;;;;475781;250;2495;-45
2023/01/18 04:10:44;;;;;;;;;;;23.30;31.20;;;;;;475726;251;1676;-45
2023/01/18 04:12:46;;;;;;;;;;;23.30;31.20;;;;;;475724;250;2074;-45
2023/01/18 04:14:47;;;;;;;;;;;23.30;31.20;;;;;;475682;250;1695;-45
2023/01/18 04:16:49;;;;;;;;;;;23.40;31.30;;;;;;475791;250;1892;-45
2023/01/18 04:18:50;;;;;;;;;;;23.40;31.20;;;;;;475780;250;2219;-45
2023/01/18 04:20:55;;;;;;;;;;;23.40;31.20;;;;;;475756;250;2602;-45
2023/01/18 04:22:53;;;;;;;;;;;23.40;31.20;;;;;;475490;250;2024;-45
2023/01/18 04:24:54;;;;;;;;;;;23.40;31.20;;;;;;475637;250;1643;-45
2023/01/18 04:26:56;;;;;;;;;;;23.40;31.20;;;;;;475806;250;1867;-45
2023/01/18 04:28:57;;;;;;;;;;;23.40;31.20;;;;;;475561;251;1678;-45
2023/01/18 04:30:59;;;;;;;;;;;23.40;31.20;;;;;;475780;250;3207;-45
2023/01/18 04:33:00;;;;;;;;;;;23.40;31.10;;;;;;475795;250;2196;-45
2023/01/18 04:35:01;;;;;;;;;;;23.40;31.10;;;;;;475502;250;2071;-45
2023/01/18 04:37:03;;;;;;;;;;;23.40;31.10;;;;;;475726;250;1784;-45
2023/01/18 04:39:04;;;;;;;;;;;23.40;31.10;;;;;;475432;251;2204;-45
2023/01/18 04:41:05;;;;;;;;;;;23.50;31.20;;;;;;475610;250;2065;-45
2023/01/18 04:43:07;;;;;;;;;;;23.50;31.10;;;;;;475726;250;1989;-45
2023/01/18 04:45:09;;;;;;;;;;;23.50;31.10;;;;;;475496;251;2360;-45
2023/01/18 04:47:09;;;;;;;;;;;23.50;31.10;;;;;;475687;250;2424;-45
2023/01/18 04:49:14;;;;;;;;;;;23.50;31.10;;;;;;475922;250;1856;-45
2023/01/18 04:51:12;;;;;;;;;;;23.50;31.20;;;;;;475531;251;2485;-45
2023/01/18 04:53:14;;;;;;;;;;;23.50;31.10;;;;;;475772;250;2155;-45
2023/01/18 04:55:15;;;;;;;;;;;23.50;31.10;;;;;;475702;251;1959;-45
2023/01/18 04:57:16;;;;;;;;;;;23.50;31.10;;;;;;475807;250;1906;-45
2023/01/18 04:59:18;;;;;;;;;;;23.50;31.10;;;;;;475622;251;1678;-45
2023/01/18 05:01:19;;;;;;;;;;;23.60;31.10;;;;;;475592;251;1732;-45
2023/01/18 05:03:20;;;;;;;;;;;23.60;31.10;;;;;;475719;250;1970;-45
2023/01/18 05:05:22;;;;;;;;;;;23.60;31.00;;;;;;475570;250;1979;-45
2023/01/18 05:07:23;;;;;;;;;;;23.60;31.10;;;;;;475876;250;1708;-45
2023/01/18 05:09:25;;;;;;;;;;;23.60;31.00;;;;;;475560;250;1699;-45
2023/01/18 05:11:26;;;;;;;;;;;23.60;31.10;;;;;;475361;251;1630;-45
2023/01/18 05:13:27;;;;;;;;;;;23.60;31.20;;;;;;475400;250;1762;-45
2023/01/18 05:15:29;;;;;;;;;;;23.50;31.30;;;;;;475305;250;1688;-45
2023/01/18 05:17:33;;;;;;;;;;;23.30;31.60;;;;;;475609;250;2192;-45
2023/01/18 05:19:31;;;;;;;;;;;23.10;31.90;;;;;;475413;250;2331;-45
2023/01/18 05:21:33;;;;;;;;;;;22.90;32.20;;;;;;475178;251;1914;-45
2023/01/18 05:23:34;;;;;;;;;;;22.70;32.40;;;;;;475195;251;1660;-45
2023/01/18 05:25:35;;;;;;;;;;;22.70;32.60;;;;;;475470;250;2476;-45
2023/01/18 05:27:37;;;;;;;;;;;22.50;32.70;;;;;;475482;250;1680;-45
2023/01/18 05:29:38;;;;;;;;;;;22.40;32.80;;;;;;475565;250;2029;-45
2023/01/18 05:31:40;;;;;;;;;;;22.40;33.00;;;;;;475527;250;1657;-45
2023/01/18 05:33:41;;;;;;;;;;;22.30;33.10;;;;;;475441;250;1995;-45
2023/01/18 05:35:42;;;;;;;;;;;22.30;33.20;;;;;;475420;250;1766;-45
2023/01/18 05:37:43;;;;;;;;;;;22.20;33.30;;;;;;475338;251;2168;-45
2023/01/18 05:39:45;;;;;;;;;;;22.10;33.40;;;;;;475769;250;2149;-45
2023/01/18 05:41:46;;;;;;;;;;;22.00;33.50;;;;;;475574;251;1766;-45
2023/01/18 05:43:47;;;;;;;;;;;22.00;33.50;;;;;;475811;250;2031;-45
2023/01/18 05:45:49;;;;;;;;;;;22.00;33.60;;;;;;475497;250;1770;-45
2023/01/18 05:47:51;;;;;;;;;;;21.90;33.70;;;;;;475447;247;1538;-45
2023/01/18 05:49:51;;;;;;;;;;;21.90;33.70;;;;;;475582;247;2594;-45
2023/01/18 05:51:53;;;;;;;;;;;21.90;33.80;;;;;;475593;249;1744;-45
2023/01/18 05:53:54;;;;;;;;;;;21.80;33.80;;;;;;475825;250;1571;-45
2023/01/18 05:55:55;;;;;;;;;;;21.80;33.90;;;;;;475829;250;1835;-45
2023/01/18 05:57:57;;;;;;;;;;;21.80;33.90;;;;;;475816;250;2737;-45
2023/01/18 05:59:58;;;;;;;;;;;21.80;33.90;;;;;;475515;251;1709;-44
2023/01/18 06:01:59;;;;;;;;;;;21.70;33.90;;;;;;475579;250;2235;-45
2023/01/18 06:04:01;;;;;;;;;;;21.70;34.00;;;;;;475610;251;1680;-45
2023/01/18 06:06:02;;;;;;;;;;;21.60;34.00;;;;;;475570;250;2006;-44
2023/01/18 06:08:03;;;;;;;;;;;21.60;34.00;;;;;;475774;250;1907;-44
2023/01/18 06:10:04;;;;;;;;;;;21.60;34.00;;;;;;475507;250;2168;-45
2023/01/18 06:12:06;;;;;;;;;;;21.60;34.10;;;;;;475336;250;1712;-45
2023/01/18 06:14:07;;;;;;;;;;;21.60;34.10;;;;;;475641;250;2322;-44
2023/01/18 06:16:09;;;;;;;;;;;21.50;34.10;;;;;;475422;250;1765;-45
2023/01/18 06:18:10;;;;;;;;;;;21.50;34.10;;;;;;475441;250;2294;-45
2023/01/18 06:20:12;;;;;;;;;;;21.50;34.20;;;;;;475481;251;1767;-45
2023/01/18 06:22:14;;;;;;;;;;;21.50;34.20;;;;;;475249;250;1950;-45
2023/01/18 06:24:14;;;;;;;;;;;21.50;34.20;;;;;;475321;250;1891;-44
2023/01/18 06:26:16;;;;;;;;;;;21.40;34.20;;;;;;475089;251;1712;-44
2023/01/18 06:28:18;;;;;;;;;;;21.40;34.30;;;;;;475683;250;1690;-45
2023/01/18 06:30:19;;;;;;;;;;;21.40;34.30;;;;;;475405;251;2245;-45
2023/01/18 06:32:21;;;;;;;;;;;21.40;34.40;;;;;;474803;251;1819;-44
2023/01/18 06:34:21;;;;;;;;;;;21.40;34.30;;;;;;474905;251;2163;-44
2023/01/18 06:36:22;;;;;;;;;;;21.40;34.30;;;;;;475083;250;1584;-45
2023/01/18 06:38:24;;;;;;;;;;;21.40;34.30;;;;;;475190;251;2207;-44
2023/01/18 06:40:25;;;;;;;;;;;21.40;34.30;;;;;;475078;251;1808;-45
2023/01/18 06:42:26;;;;;;;;;;;21.40;34.40;;;;;;475310;250;1787;-44
2023/01/18 06:44:28;;;;;;;;;;;21.40;34.40;;;;;;475521;250;1614;-44
2023/01/18 06:46:29;;;;;;;;;;;21.30;34.50;;;;;;475403;250;1534;-45
2023/01/18 06:48:30;;;;;;;;;;;21.30;34.50;;;;;;475496;250;1704;-45
2023/01/18 06:50:32;;;;;;;;;;;21.30;34.40;;;;;;475743;250;1844;-44
2023/01/18 06:52:33;;;;;;;;;;;21.30;34.40;;;;;;475601;250;1765;-45
2023/01/18 06:54:35;;;;;;;;;;;21.30;34.50;;;;;;475536;251;2169;-44
2023/01/18 06:56:36;;;;;;;;;;;21.20;34.40;;;;;;475559;251;1806;-44
2023/01/18 06:58:37;;;;;;;;;;;21.20;34.50;;;;;;475357;250;2180;-44
2023/01/18 07:00:39;;;;;;;;;;;21.20;34.60;;;;;;475378;251;1915;-44
2023/01/18 07:02:40;;;;;;;;;;;21.20;34.60;;;;;;475472;250;1763;-44
2023/01/18 07:04:44;;;;;;;;;;;21.20;34.60;;;;;;475533;250;2033;-44
2023/01/18 07:06:43;;;;;;;;;;;21.20;34.60;;;;;;475294;250;1615;-45
2023/01/18 07:08:44;;;;;;;;;;;21.20;34.60;;;;;;475410;251;1619;-45
2023/01/18 07:10:45;;;;;;;;;;;21.20;34.60;;;;;;475382;250;1788;-44
2023/01/18 07:12:47;;;;;;;;;;;21.10;34.60;;;;;;475313;251;1749;-44
2023/01/18 07:14:48;;;;;;;;;;;21.20;34.60;;;;;;475571;250;1877;-45
2023/01/18 07:16:49;;;;;;;;;;;21.10;34.50;;;;;;475321;250;1716;-45
2023/01/18 07:18:50;;;;;;;;;;;21.10;34.60;;;;;;475210;250;2204;-45
2023/01/18 07:20:52;;;;;;;;;;;21.10;34.50;;;;;;475456;250;1689;-45
2023/01/18 07:22:53;;;;;;;;;;;21.00;34.50;;;;;;475342;251;2209;-44
2023/01/18 07:24:55;;;;;;;;;;;21.10;34.40;;;;;;475312;250;2095;-44
2023/01/18 07:26:58;;;;;;;;;;;21.00;34.50;;;;;;475452;250;1989;-45
2023/01/18 07:28:58;;;;;;;;;;;21.10;34.60;;;;;;475324;251;1578;-45
2023/01/18 07:30:59;;;;;;;;;;;21.10;34.50;;;;;;475278;250;1946;-45
2023/01/18 07:33:00;;;;;;;;;;;21.10;34.40;;;;;;475330;250;1674;-44
2023/01/18 07:35:01;;;;;;;;;;;21.00;34.40;;;;;;475316;247;1705;-44
2023/01/18 07:37:03;;;;;;;;;;;21.00;34.50;;;;;;475435;250;1675;-45
2023/01/18 07:39:05;;;;;;;;;;;21.00;34.50;;;;;;475415;251;2207;-44
2023/01/18 07:41:07;;;;;;;;;;;21.00;34.40;;;;;;475290;251;1775;-44
2023/01/18 07:43:07;;;;;;;;;;;21.00;34.30;;;;;;475041;250;1808;-44
2023/01/18 07:45:09;;;;;;;;;;;21.00;34.30;;;;;;475137;250;1503;-44
2023/01/18 07:47:09;;;;;;;;;;;21.00;34.30;;;;;;475065;250;1667;-45
2023/01/18 07:49:11;;;;;;;;;;;21.00;34.30;;;;;;475071;250;2184;-45
2023/01/18 07:51:12;;;;;;;;;;;21.00;34.30;;;;;;475097;251;1691;-44
2023/01/18 07:53:13;;;;;;;;;;;21.00;34.40;;;;;;475071;251;1849;-45
2023/01/18 07:55:15;;;;;;;;;;;21.00;34.40;;;;;;475099;250;1765;-45
2023/01/18 07:57:16;;;;;;;;;;;21.00;34.30;;;;;;475081;250;1712;-44
2023/01/18 07:59:17;;;;;;;;;;;21.00;34.30;;;;;;474883;251;2195;-44
2023/01/18 08:01:19;;;;;;;;;;;20.90;34.30;;;;;;475090;250;1669;-44
2023/01/18 08:03:20;;;;;;;;;;;21.00;34.30;;;;;;474875;250;1750;-44
2023/01/18 08:05:25;;;;;;;;;;;21.00;34.30;;;;;;474893;250;1690;-45
2023/01/18 08:07:23;;;;;;;;;;;21.00;34.20;;;;;;474537;251;1879;-44
2023/01/18 08:09:24;;;;;;;;;;;21.00;34.20;;;;;;474923;251;1928;-45
2023/01/18 08:11:26;;;;;;;;;;;21.00;34.20;;;;;;475003;251;1935;-45
2023/01/18 08:13:27;;;;;;;;;;;20.90;34.20;;;;;;475077;251;1565;-45
2023/01/18 08:15:29;;;;;;;;;;;20.90;34.20;;;;;;475257;250;1709;-45
2023/01/18 08:17:30;;;;;;;;;;;21.00;34.20;;;;;;475022;250;1793;-45
2023/01/18 08:19:31;;;;;;;;;;;21.00;34.20;;;;;;474993;250;2200;-45
2023/01/18 08:21:33;;;;;;;;;;;20.90;34.20;;;;;;475110;251;1865;-45
2023/01/18 08:23:34;;;;;;;;;;;20.90;34.20;;;;;;475184;250;1613;-45
2023/01/18 08:25:35;;;;;;;;;;;20.90;34.30;;;;;;475037;251;2245;-45
2023/01/18 08:27:37;;;;;;;;;;;20.90;34.20;;;;;;475169;250;2374;-45
2023/01/18 08:29:38;;;;;;;;;;;20.90;34.20;;;;;;475094;250;1226;-45
2023/01/18 08:31:40;;;;;;;;;;;21.00;34.10;;;;;;475150;250;1585;-44
2023/01/18 08:33:41;;;;;;;;;;;21.00;34.10;;;;;;475037;251;2360;-44
2023/01/18 08:35:42;;;;;;;;;;;21.00;34.10;;;;;;475069;251;1929;-44
2023/01/18 08:37:43;;;;;;;;;;;21.00;34.10;;;;;;475389;250;1472;-45
2023/01/18 08:39:45;;;;;;;;;;;20.90;34.10;;;;;;474885;251;2216;-44
2023/01/18 08:41:48;;;;;;;;;;;20.90;34.10;;;;;;474824;250;1917;-45
2023/01/18 08:43:49;;;;;;;;;;;20.90;34.10;;;;;;475085;250;1380;-45
2023/01/18 08:45:49;;;;;;;;;;;20.90;34.10;;;;;;474926;250;2430;-44
2023/01/18 08:47:50;;;;;;;;;;;20.90;34.00;;;;;;475345;250;2131;-44
2023/01/18 08:49:51;;;;;;;;;;;20.90;34.10;;;;;;475164;250;1953;-45
2023/01/18 08:51:53;;;;;;;;;;;20.90;34.00;;;;;;475176;250;1321;-45
2023/01/18 08:53:55;;;;;;;;;;;20.90;34.00;;;;;;475259;251;1883;-45
2023/01/18 08:55:55;;;;;;;;;;;20.90;34.00;;;;;;474902;250;2314;-44
2023/01/18 08:57:57;;;;;;;;;;;20.90;34.00;;;;;;475293;251;1677;-45
2023/01/18 08:59:58;;;;;;;;;;;21.00;34.00;;;;;;475347;250;2199;-44
2023/01/18 09:01:59;;;;;;;;;;;20.90;33.90;;;;;;475346;251;1640;-45
2023/01/18 09:04:01;;;;;;;;;;;21.00;33.90;;;;;;475381;250;1739;-45
2023/01/18 09:06:02;;;;;;;;;;;21.00;33.90;;;;;;475464;250;1704;-45
2023/01/18 09:08:04;;;;;;;;;;;21.00;33.90;;;;;;475476;250;1907;-44
2023/01/18 09:10:07;;;;;;;;;;;20.90;33.80;;;;;;475391;251;1167;-45
2023/01/18 09:12:06;;;;;;;;;;;20.90;33.90;;;;;;475158;251;1701;-45
2023/01/18 09:14:08;;;;;;;;;;;21.00;33.90;;;;;;475502;250;1693;-44
2023/01/18 09:16:09;;;;;;;;;;;21.00;33.80;;;;;;475285;251;1506;-44
2023/01/18 09:18:10;;;;;;;;;;;21.00;33.90;;;;;;475454;250;1938;-45
2023/01/18 09:20:12;;;;;;;;;;;21.00;33.90;;;;;;475357;250;2148;-45
2023/01/18 09:22:13;;;;;;;;;;;21.00;33.90;;;;;;475413;250;1251;-45
2023/01/18 09:24:14;;;;;;;;;;;21.00;33.90;;;;;;475359;250;1668;-44
2023/01/18 09:26:17;;;;;;;;;;;20.90;33.90;;;;;;475216;250;2226;-44
2023/01/18 09:28:17;;;;;;;;;;;21.00;33.90;;;;;;475166;251;1522;-45
2023/01/18 09:30:19;;;;;;;;;;;21.00;33.80;;;;;;475307;250;1697;-44
2023/01/18 09:32:20;;;;;;;;;;;20.90;33.80;;;;;;475506;250;1745;-44
2023/01/18 09:34:22;;;;;;;;;;;21.00;33.80;;;;;;475337;250;1815;-44
2023/01/18 09:36:25;;;;;;;;;;;21.00;33.90;;;;;;475201;250;1603;-45
2023/01/18 09:38:24;;;;;;;;;;;20.90;33.80;;;;;;475304;251;2223;-44
2023/01/18 09:40:26;;;;;;;;;;;21.00;33.80;;;;;;475436;250;2196;-44
2023/01/18 09:42:27;;;;;;;;;;;21.00;33.70;;;;;;475333;250;1919;-45
2023/01/18 09:44:29;;;;;;;;;;;21.00;33.80;;;;;;475541;250;1679;-45
2023/01/18 09:46:30;;;;;;;;;;;21.00;33.80;;;;;;474979;251;2079;-44
2023/01/18 09:48:31;;;;;;;;;;;21.00;33.70;;;;;;474981;251;1690;-45
2023/01/18 09:50:33;;;;;;;;;;;20.90;33.70;;;;;;475320;246;1938;-44
2023/01/18 09:52:34;;;;;;;;;;;21.00;33.80;;;;;;475419;250;1713;-45
2023/01/18 09:54:36;;;;;;;;;;;20.90;33.70;;;;;;475272;250;1641;-45
2023/01/18 09:56:37;;;;;;;;;;;20.90;33.70;;;;;;475156;251;2169;-45
2023/01/18 09:58:38;;;;;;;;;;;20.90;33.70;;;;;;475438;250;2294;-45
2023/01/18 10:00:39;;;;;;;;;;;20.90;33.70;;;;;;475423;250;2184;-44
2023/01/18 10:02:41;;;;;;;;;;;20.90;33.70;;;;;;474933;251;2059;-44
2023/01/18 10:04:42;;;;;;;;;;;20.90;33.70;;;;;;475266;250;1789;-45
2023/01/18 10:06:43;;;;;;;;;;;21.00;33.80;;;;;;475186;250;1365;-45
2023/01/18 10:08:45;;;;;;;;;;;20.90;33.60;;;;;;475104;250;1278;-45
2023/01/18 10:10:46;;;;;;;;;;;20.90;33.70;;;;;;475062;250;1696;-45
2023/01/18 10:12:47;;;;;;;;;;;20.90;33.70;;;;;;475266;250;1707;-45
2023/01/18 10:14:49;;;;;;;;;;;20.90;33.70;;;;;;475029;251;1614;-44
2023/01/18 10:16:50;;;;;;;;;;;20.90;33.70;;;;;;475187;251;1675;-44
2023/01/18 10:18:54;;;;;;;;;;;20.90;33.70;;;;;;475058;250;1711;-44
2023/01/18 10:20:54;;;;;;;;;;;20.90;33.70;;;;;;474915;250;2204;-45
2023/01/18 10:22:54;;;;;;;;;;;20.90;33.70;;;;;;475182;250;2236;-44
2023/01/18 10:24:56;;;;;;;;;;;20.90;33.70;;;;;;475087;251;1590;-45
2023/01/18 10:26:56;;;;;;;;;;;20.90;33.60;;;;;;475158;250;2006;-44
2023/01/18 10:28:58;;;;;;;;;;;20.90;33.70;;;;;;475220;250;1747;-44
2023/01/18 10:31:00;;;;;;;;;;;20.90;33.70;;;;;;475285;250;2199;-45
2023/01/18 10:33:02;;;;;;;;;;;20.90;33.60;;;;;;475182;251;2263;-44
2023/01/18 10:35:02;;;;;;;;;;;20.90;33.60;;;;;;475195;250;2127;-44
2023/01/18 10:37:04;;;;;;;;;;;20.90;33.60;;;;;;475187;250;1738;-44
2023/01/18 10:39:05;;;;;;;;;;;20.90;33.60;;;;;;475278;250;1566;-44
2023/01/18 10:41:07;;;;;;;;;;;20.90;33.60;;;;;;475138;251;2228;-44
2023/01/18 10:43:09;;;;;;;;;;;20.90;33.60;;;;;;475069;251;2315;-44
2023/01/18 10:45:09;;;;;;;;;;;20.90;33.60;;;;;;475090;251;2285;-44
2023/01/18 10:47:11;;;;;;;;;;;20.90;33.60;;;;;;475246;250;1746;-44
2023/01/18 10:49:12;;;;;;;;;;;20.90;33.60;;;;;;475299;251;2239;-44
2023/01/18 10:51:14;;;;;;;;;;;20.90;33.60;;;;;;475217;251;1947;-44
2023/01/18 10:53:15;;;;;;;;;;;20.90;33.60;;;;;;475219;250;1876;-45
2023/01/18 10:55:16;;;;;;;;;;;20.90;33.60;;;;;;475114;251;1777;-45
2023/01/18 10:57:18;;;;;;;;;;;20.90;33.50;;;;;;475130;251;1792;-44
2023/01/18 10:59:19;;;;;;;;;;;20.90;33.50;;;;;;475187;250;1734;-45
2023/01/18 11:01:21;;;;;;;;;;;20.90;33.50;;;;;;475157;251;2192;-45
2023/01/18 11:03:22;;;;;;;;;;;20.90;33.50;;;;;;475207;250;1697;-44
2023/01/18 11:05:23;;;;;;;;;;;20.80;33.50;;;;;;475273;250;1698;-44
2023/01/18 11:07:24;;;;;;;;;;;20.90;33.60;;;;;;475348;250;1769;-44
2023/01/18 11:09:26;;;;;;;;;;;20.90;33.60;;;;;;475303;250;1598;-45
2023/01/18 11:12:32;;;;;;;;;;;20.90;33.60;;;;;;475261;250;1627;-45
2023/01/18 11:13:29;;;;;;;;;;;20.90;33.60;;;;;;473660;251;1587;-44
2023/01/18 11:15:31;;;;;;;;;;;20.80;33.60;;;;;;475301;250;1702;-45
2023/01/18 11:17:32;;;;;;;;;;;20.80;33.60;;;;;;475283;251;1727;-44
2023/01/18 11:19:34;;;;;;;;;;;20.80;33.60;;;;;;475604;250;2200;-45
2023/01/18 11:21:39;;;;;;;;;;;20.80;33.50;;;;;;475360;250;1954;-45
2023/01/18 11:23:37;;;;;;;;;;;20.80;33.60;;;;;;475191;250;2706;-45
2023/01/18 11:25:38;;;;;;;;;;;20.80;33.60;;;;;;475323;251;1742;-45
2023/01/18 11:27:40;;;;;;;;;;;20.80;33.60;;;;;;475383;251;1697;-45
2023/01/18 11:29:40;;;;;;;;;;;20.80;33.60;;;;;;475615;250;2131;-44
2023/01/18 11:31:44;;;;;;;;;;;20.80;33.70;;;;;;475472;250;1728;-44
2023/01/18 11:33:44;;;;;;;;;;;20.80;33.60;;;;;;475326;250;1753;-44
2023/01/18 11:35:45;;;;;;;;;;;20.70;33.60;;;;;;475209;246;2808;-44
2023/01/18 11:37:47;;;;;;;;;;;20.70;33.50;;;;;;475754;250;1098;-44
2023/01/18 11:39:48;;;;;;;;;;;20.80;33.60;;;;;;475262;251;2208;-45
2023/01/18 11:41:49;;;;;;;;;;;20.80;33.60;;;;;;475421;250;1698;-45
2023/01/18 11:43:50;;;;;;;;;;;20.80;33.50;;;;;;475357;250;1673;-45
2023/01/18 11:45:53;;;;;;;;;;;20.80;33.40;;;;;;475302;250;1663;-45
2023/01/18 11:47:53;;;;;;;;;;;20.80;33.50;;;;;;475349;250;1648;-44
2023/01/18 11:49:55;;;;;;;;;;;20.80;33.50;;;;;;475592;250;2384;-44
2023/01/18 11:51:56;;;;;;;;;;;20.80;33.50;;;;;;475381;250;2458;-45
2023/01/18 11:53:57;;;;;;;;;;;20.80;33.50;;;;;;475263;251;2316;-44
2023/01/18 11:56:04;;;;;;;;;;;20.80;33.50;;;;;;475142;251;1254;-44
2023/01/18 11:58:00;;;;;;;;;;;20.80;33.50;;;;;;474984;251;2255;-44
2023/01/18 12:00:02;;;;;;;;;;;20.80;33.50;;;;;;475320;250;2205;-44
2023/01/18 12:02:03;;;;;;;;;;;20.80;33.40;;;;;;475256;251;2385;-45
2023/01/18 12:04:04;;;;;;;;;;;20.80;33.50;;;;;;475824;250;1275;-44
2023/01/18 12:06:05;;;;;;;;;;;20.80;33.50;;;;;;475484;250;1636;-44
2023/01/18 12:08:07;;;;;;;;;;;20.80;33.40;;;;;;475368;251;1319;-44
2023/01/18 12:10:09;;;;;;;;;;;20.80;33.40;;;;;;475586;250;1622;-44
2023/01/18 12:12:09;;;;;;;;;;;20.80;33.50;;;;;;475285;250;1648;-45
2023/01/18 12:14:12;;;;;;;;;;;20.80;33.40;;;;;;475228;250;1849;-44
2023/01/18 12:16:12;;;;;;;;;;;20.80;33.30;;;;;;475040;251;2460;-44
2023/01/18 12:18:14;;;;;;;;;;;20.80;33.40;;;;;;475312;251;1941;-45
2023/01/18 12:20:17;;;;;;;;;;;20.80;33.40;;;;;;475271;250;2211;-44
2023/01/18 12:22:16;;;;;;;;;;;20.80;33.40;;;;;;474961;251;1666;-45
2023/01/18 12:24:18;;;;;;;;;;;20.80;33.40;;;;;;475156;251;1691;-45
2023/01/18 12:26:19;;;;;;;;;;;20.80;33.40;;;;;;475302;250;1706;-44
2023/01/18 12:28:20;;;;;;;;;;;20.80;33.40;;;;;;475154;251;1555;-45
2023/01/18 12:30:22;;;;;;;;;;;20.70;33.30;;;;;;475318;250;1656;-44